Terminal Aerodrome Forecast
Issued by NWS

Home | Current Version | Previous Version | Text Only | Print | Product List | Glossary On
Versions: 1 2 3 4 5 6 7 8 9 10 11 12
000
FTUS46 KSEW 210500
TAFPAE
TAF
KPAE 210524Z 2106/2206 02008KT P6SM SKC
     FM211200 19005KT P6SM BKN003
      TEMPO 2112/2116 2SM BR OVC003
     FM211700 21008KT P6SM VCSH SCT020 OVC035
     FM212200 32006KT P6SM -SHRA BKN020 OVC030=

USA.gov is the U.S. government's official web portal to all federal, state and local government web resources and services.